Latest Weather Observations for Maria Island

IDT60901

Issued at 5:01 pm EDT Sunday 22 October 2017 (issued every 10 minutes, with the page automatically refreshed every 10 minutes)

About weather observations | Map of Hobart area stations | Latest observations for Hobart area | Other Formats
Station Details ID: 092124 Name: MARIA ISLAND (POINT LESUEUR) Lat: -42.66 Lon: 148.02 Height: 28.0 m
Data from the previous 72 hours. | See also: Recent months at Maria Island
Date/Time
EDT
Temp
°C
App
Temp
°C
Dew
Point
°C
Rel
Hum
%
Delta-T
°C
Wind Press
QNH
hPa
Press
MSL
hPa
Rain since
9am
mm
Dir  Spd
km/h
Gust
km/h
Spd
kts
Gust
kts
22/05:00pm 14.7 12.3 9.9 73 2.5 E 13 17 7 9 1010.6 1010.6 0.0
22/04:30pm 14.3 10.6 9.5 73 2.5 E 19 24 10 13 1010.7 1010.7 0.0
22/04:00pm 14.7 11.3 9.3 70 2.8 E 17 22 9 12 1010.8 1010.8 0.0
22/03:30pm 14.8 11.0 9.8 72 2.6 E 20 26 11 14 1010.4 1010.4 0.0
22/03:00pm 16.1 12.8 9.5 65 3.4 E 17 28 9 15 1010.1 1010.1 0.0
22/02:30pm 17.3 11.4 9.0 58 4.3 S 30 33 16 18 1010.6 1010.6 0.0
22/02:00pm 16.3 10.3 8.5 60 4.0 S 30 33 16 18 1010.7 1010.7 0.0
22/01:30pm 16.9 10.9 8.6 58 4.3 S 30 33 16 18 1010.8 1010.8 0.0
22/01:00pm 16.7 11.1 8.7 59 4.1 S 28 32 15 17 1010.9 1010.9 0.0
22/12:30pm 15.9 10.6 8.6 62 3.7 S 26 28 14 15 1010.9 1010.9 0.0
22/12:00pm 16.2 11.8 8.9 62 3.8 S 22 30 12 16 1011.1 1011.1 0.0
22/11:30am 15.7 11.3 8.9 64 3.5 S 22 28 12 15 1011.4 1011.4 0.0
22/11:00am 15.0 11.0 8.3 64 3.4 S 19 24 10 13 1011.6 1011.6 0.0
22/10:30am 14.9 11.5 9.1 68 3.0 S 17 22 9 12 1011.7 1011.7 0.0
22/10:00am 14.4 10.3 8.8 69 2.8 S 20 24 11 13 1011.8 1011.8 0.0
22/09:30am 14.0 9.3 9.2 73 2.4 SSW 24 30 13 16 1012.0 1012.0 0.0
22/09:00am 13.1 8.1 9.4 78 1.9 SSW 26 32 14 17 1011.9 1011.9 0.0
22/08:30am 13.6 9.9 9.5 76 2.1 SSW 19 22 10 12 1011.8 1011.8 0.0
22/08:00am 13.0 9.2 8.9 76 2.1 SSW 19 20 10 11 1011.6 1011.6 0.0
22/07:30am 12.5 9.3 8.4 76 2.0 SSW 15 19 8 10 1011.4 1011.4 0.0
22/07:00am 12.1 7.8 8.0 76 2.0 SW 20 26 11 14 1011.2 1011.2 0.0
22/06:30am 12.6 7.5 7.7 72 2.4 SW 24 32 13 17 1010.8 1010.8 0.0
22/06:00am 12.7 8.9 7.4 70 2.6 WSW 17 20 9 11 1010.6 1010.6 0.0
22/05:30am 12.9 9.1 7.4 69 2.7 WSW 17 20 9 11 1010.4 1010.4 0.0
22/05:00am 13.1 8.2 6.7 65 3.1 WSW 22 28 12 15 1010.3 1010.3 0.0
22/04:30am 13.2 9.2 6.8 65 3.1 WSW 17 24 9 13 1010.2 1010.2 0.0
22/04:00am 13.3 8.0 6.6 64 3.2 WSW 24 32 13 17 1010.2 1010.2 0.0
22/03:30am 13.5 8.9 6.4 62 3.4 W 20 26 11 14 1010.3 1010.3 0.0
22/03:00am 13.5 6.2 7.1 65 3.1 W 35 46 19 25 1009.8 1009.8 0.0
22/02:30am 13.5 8.1 6.4 62 3.4 W 24 39 13 21 1010.3 1010.3 0.0
22/02:00am 13.4 8.8 6.7 64 3.2 WSW 20 26 11 14 1010.6 1010.6 0.0
22/01:30am 13.4 8.5 6.7 64 3.2 WSW 22 28 12 15 1010.9 1010.9 0.0
22/01:00am 13.5 8.9 6.6 63 3.3 W 20 32 11 17 1011.2 1011.2 0.0
22/12:30am 13.6 7.6 6.9 64 3.2 W 28 37 15 20 1011.4 1011.4 0.0
22/12:00am 13.7 7.6 6.8 63 3.3 WSW 28 37 15 20 1011.5 1011.5 0.0
 
Date/Time
EDT
Temp
°C
App
Temp
°C
Dew
Point
°C
Rel
Hum
%
Delta-T
°C
Wind Press
QNH
hPa
Press
MSL
hPa
Rain since
9am
mm
Dir  Spd
km/h
Gust
km/h
Spd
kts
Gust
kts
21/11:30pm 13.8 9.2 6.7 62 3.4 W 20 26 11 14 1011.9 1011.9 0.0
21/11:00pm 13.9 9.3 6.7 62 3.5 W 20 26 11 14 1012.1 1012.1 0.0
21/10:30pm 14.1 9.1 6.5 60 3.7 W 22 28 12 15 1012.4 1012.4 0.0
21/10:00pm 14.3 9.3 6.6 60 3.7 W 22 30 12 16 1012.5 1012.5 0.0
21/09:30pm 14.5 10.1 6.6 59 3.8 W 19 22 10 12 1012.7 1012.7 0.0
21/09:00pm 14.7 9.0 6.8 59 3.9 W 26 32 14 17 1012.7 1012.7 0.0
21/08:30pm 14.7 10.4 6.8 59 3.8 W 19 26 10 14 1012.7 1012.7 0.0
21/08:00pm 14.9 9.6 7.0 59 3.9 W 24 28 13 15 1012.7 1012.7 0.0
21/07:30pm 15.3 9.4 5.8 53 4.6 W 26 33 14 18 1012.7 1012.7 0.0
21/07:00pm 15.6 8.1 6.3 54 4.5 W 35 43 19 23 1012.3 1012.3 0.0
21/06:30pm 16.8 11.6 7.2 53 4.8 WSW 24 32 13 17 1012.4 1012.4 0.0
21/06:00pm 16.8 10.8 6.9 52 4.9 W 28 39 15 21 1012.5 1012.5 0.0
21/05:30pm 16.6 11.1 7.5 55 4.6 W 26 33 14 18 1012.6 1012.6 0.0
21/05:00pm 17.9 12.5 6.4 47 5.7 W 24 39 13 21 1012.5 1012.5 0.0
21/04:30pm 18.6 13.3 6.8 46 5.9 W 24 33 13 18 1012.7 1012.7 0.0
21/04:00pm 17.4 12.8 8.0 54 4.8 SW 22 32 12 17 1013.0 1013.0 0.0
21/03:30pm 18.0 12.1 5.9 45 5.9 WSW 26 39 14 21 1013.2 1013.2 0.0
21/03:00pm 17.9 13.5 6.7 48 5.6 W 19 28 10 15 1013.6 1013.6 0.0
21/02:30pm 17.9 13.5 6.4 47 5.7 WSW 19 26 10 14 1013.9 1013.9 0.0
21/02:00pm 18.4 13.4 6.6 46 5.9 WSW 22 30 12 16 1014.2 1014.2 0.0
21/01:30pm 17.9 12.3 5.2 43 6.1 WSW 24 39 13 21 1014.4 1014.4 0.0
21/01:00pm 18.0 11.7 5.9 45 5.9 W 28 35 15 19 1014.6 1014.6 0.0
21/12:30pm 18.6 14.2 6.4 45 6.1 W 19 28 10 15 1015.1 1015.1 0.0
21/12:00pm 18.3 13.5 7.4 49 5.5 WNW 22 35 12 19 1015.6 1015.6 0.0
21/11:30am 16.9 10.6 5.8 48 5.4 WNW 28 35 15 19 1016.1 1016.1 0.0
21/11:00am 15.2 9.1 6.5 56 4.2 W 28 35 15 19 1016.5 1016.5 0.0
21/10:30am 15.6 9.7 5.8 52 4.7 W 26 33 14 18 1017.1 1017.1 0.0
21/10:00am 15.1 10.8 5.3 52 4.6 W 17 24 9 13 1017.4 1017.4 0.0
21/09:30am 14.8 10.9 5.3 53 4.5 WNW 15 19 8 10 1017.6 1017.6 0.0
21/09:00am 13.6 9.2 4.7 55 4.1 WNW 17 24 9 13 1017.8 1017.8 0.0
21/08:30am 12.5 8.8 4.7 59 3.6 WNW 13 19 7 10 1018.2 1018.2 0.0
21/08:00am 11.5 7.1 4.5 62 3.2 WNW 17 24 9 13 1018.2 1018.2 0.0
21/07:30am 10.8 6.5 3.4 60 3.2 NW 15 26 8 14 1018.4 1018.4 0.0
21/07:00am 10.3 6.4 3.6 63 2.9 WNW 13 19 7 10 1018.7 1018.7 0.0
21/06:30am 10.0 5.3 3.3 63 2.9 WNW 17 20 9 11 1018.7 1018.7 0.0
21/06:00am 10.1 6.2 3.2 62 3.0 W 13 19 7 10 1018.8 1018.8 0.0
21/05:30am 9.9 6.4 3.4 64 2.8 NNW 11 15 6 8 1018.7 1018.7 0.0
21/05:00am 10.2 7.3 2.8 60 3.2 NNW 7 17 4 9 1018.9 1018.9 0.0
21/04:30am 9.9 6.3 2.7 61 3.1 NW 11 17 6 9 1018.9 1018.9 0.0
21/04:00am 10.0 7.1 2.8 61 3.1 NW 7 11 4 6 1019.2 1019.2 0.0
21/03:30am 10.1 6.9 2.9 61 3.1 W 9 17 5 9 1019.7 1019.7 0.0
21/03:00am 10.1 5.8 3.2 62 3.0 WNW 15 20 8 11 1020.0 1020.0 0.0
21/02:30am 10.1 5.7 2.7 60 3.2 WNW 15 22 8 12 1020.3 1020.3 0.0
21/02:00am 9.9 6.3 2.7 61 3.1 WNW 11 19 6 10 1020.7 1020.7 0.0
21/01:30am 10.3 5.5 2.4 58 3.4 W 17 26 9 14 1021.1 1021.1 0.0
21/01:00am 10.0 5.9 2.4 59 3.2 WNW 13 19 7 10 1021.4 1021.4 0.0
21/12:30am 10.3 6.2 2.2 57 3.4 WNW 13 24 7 13 1021.9 1021.9 0.0
21/12:00am 10.3 5.8 2.4 58 3.4 WNW 15 24 8 13 1022.0 1022.0 0.0
 
Date/Time
EDT
Temp
°C
App
Temp
°C
Dew
Point
°C
Rel
Hum
%
Delta-T
°C
Wind Press
QNH
hPa
Press
MSL
hPa
Rain since
9am
mm
Dir  Spd
km/h
Gust
km/h
Spd
kts
Gust
kts
20/11:30pm 10.2 6.1 2.3 58 3.4 W 13 19 7 10 1022.0 1022.0 0.0
20/11:00pm 10.6 5.4 2.2 56 3.6 W 19 28 10 15 1022.1 1022.1 0.0
20/10:30pm 11.0 4.4 2.3 55 3.7 WSW 26 35 14 19 1021.9 1021.9 0.0
20/10:00pm 11.3 5.2 2.9 56 3.6 W 24 35 13 19 1021.9 1021.9 0.0
20/09:30pm 11.4 5.2 2.4 54 3.9 W 24 32 13 17 1021.8 1021.8 0.0
20/09:00pm 11.7 5.3 3.0 55 3.8 WSW 26 32 14 17 1021.6 1021.6 0.0
20/08:30pm 12.0 6.1 3.8 57 3.7 W 24 32 13 17 1021.6 1021.6 0.0
20/08:00pm 12.5 7.4 4.0 56 3.8 W 20 26 11 14 1021.5 1021.5 0.0
20/07:30pm 13.3 6.6 3.9 53 4.3 W 28 35 15 19 1021.3 1021.3 0.0
20/07:00pm 14.2 6.2 3.9 50 4.7 W 35 43 19 23 1020.9 1020.9 0.0
20/06:37pm 14.4 8.1 3.8 49 4.8 WSW 26 43 14 23 1020.5 1020.5 0.0
20/06:30pm 13.8 9.2 6.4 61 3.6 SSW 20 30 11 16 1020.7 1020.7 0.0
20/06:00pm 13.5 7.6 7.5 67 2.9 SSW 28 32 15 17 1020.5 1020.5 0.0
20/05:30pm 13.5 6.7 7.5 67 2.9 SSW 33 39 18 21 1020.1 1020.1 0.0
20/05:00pm 13.9 7.7 7.7 66 3.1 SSW 30 33 16 18 1020.1 1020.1 0.0
20/04:30pm 13.6 6.8 7.8 68 2.9 SSW 33 39 18 21 1019.9 1019.9 0.0
20/04:00pm 13.8 5.6 8.0 68 2.9 SSW 41 46 22 25 1019.5 1019.5 0.0
20/03:30pm 14.7 6.2 6.8 59 3.8 SSW 41 52 22 28 1019.5 1019.5 0.0
20/03:00pm 15.2 8.4 7.0 58 4.0 SSW 32 39 17 21 1019.7 1019.7 0.0
20/02:30pm 15.0 7.3 7.1 59 3.9 S 37 44 20 24 1019.6 1019.6 0.0
20/02:00pm 14.6 6.5 7.2 61 3.6 S 39 44 21 24 1019.7 1019.7 0.0
20/01:30pm 15.4 8.6 6.7 56 4.3 SSW 32 41 17 22 1019.7 1019.7 0.0
20/01:00pm 14.6 9.6 6.4 58 3.9 SSW 22 28 12 15 1019.7 1019.7 0.0
20/12:30pm 14.2 9.8 6.6 60 3.7 S 19 22 10 12 1019.7 1019.7 0.0
20/12:00pm 15.0 8.9 4.7 50 4.8 SSW 26 33 14 18 1019.4 1019.4 0.0
20/11:30am 15.3 9.3 5.5 52 4.7 SSW 26 35 14 19 1019.3 1019.3 0.0
20/11:00am 14.4 9.1 5.0 53 4.4 SSW 22 28 12 15 1019.2 1019.2 0.0
20/10:30am 14.8 10.1 5.9 55 4.3 SW 20 28 11 15 1019.1 1019.1 0.0
20/10:00am 13.7 8.8 5.1 56 4.0 SW 20 32 11 17 1018.8 1018.8 0.0
20/09:30am 13.2 7.0 4.4 55 4.0 WSW 26 33 14 18 1018.5 1018.5 0.0
20/09:00am 12.5 7.6 4.2 57 3.7 WSW 19 28 10 15 1018.5 1018.5 2.0
20/08:30am 11.6 7.0 3.6 58 3.5 W 17 22 9 12 1018.3 1018.3 2.0
20/08:00am 10.9 6.3 3.7 61 3.2 WNW 17 22 9 12 1018.0 1018.0 2.0
20/07:30am 10.5 6.6 3.3 61 3.1 WNW 13 17 7 9 1017.6 1017.6 2.0
20/07:00am 10.1 4.9 3.6 64 2.8 WNW 20 26 11 14 1016.7 1016.7 2.0
20/06:30am 10.0 7.1 4.6 69 2.4 WSW 9 11 5 6 1016.4 1016.4 2.0
20/06:00am 9.8 6.4 4.2 68 2.5 W 11 13 6 7 1015.9 1015.9 2.0
20/05:30am 10.2 5.6 3.7 64 2.9 W 17 20 9 11 1015.6 1015.6 2.0
20/05:00am 10.4 5.9 4.1 65 2.8 WSW 17 26 9 14 1015.5 1015.5 2.0
20/04:30am 10.7 5.9 5.5 70 2.4 NW 20 26 11 14 1015.3 1015.3 2.0
20/04:00am 11.2 5.9 4.9 65 2.9 NNW 22 28 12 15 1014.8 1014.8 2.0
20/03:30am 11.7 6.2 4.0 59 3.4 NNW 22 30 12 16 1014.8 1014.8 2.0
20/03:00am 12.0 7.1 4.0 58 3.6 NW 19 24 10 13 1014.7 1014.7 2.0
20/02:30am 11.9 6.5 4.6 61 3.3 NNW 22 28 12 15 1014.5 1014.5 2.0
20/02:00am 12.2 5.6 4.2 58 3.6 NNW 28 30 15 16 1014.2 1014.2 2.0
20/01:30am 12.1 5.6 4.6 60 3.4 NNW 28 32 15 17 1014.1 1014.1 2.0
20/01:00am 12.2 7.2 4.4 59 3.5 NNW 20 28 11 15 1014.3 1014.3 2.0
20/12:30am 12.0 7.0 4.5 60 3.4 WNW 20 24 11 13 1014.3 1014.3 2.0
20/12:00am 12.2 6.0 4.4 59 3.5 NW 26 33 14 18 1014.2 1014.2 2.0
 
Date/Time
EDT
Temp
°C
App
Temp
°C
Dew
Point
°C
Rel
Hum
%
Delta-T
°C
Wind Press
QNH
hPa
Press
MSL
hPa
Rain since
9am
mm
Dir  Spd
km/h
Gust
km/h
Spd
kts
Gust
kts
19/11:30pm 12.9 7.0 4.1 55 4.0 WNW 24 32 13 17 1014.3 1014.3 2.0
19/11:00pm 13.2 4.0 3.6 52 4.3 W 41 50 22 27 1013.3 1013.3 2.0
19/10:30pm 13.6 6.0 3.9 52 4.4 W 33 43 18 23 1013.6 1013.6 2.0
19/10:26pm 13.8 6.5 4.7 54 4.2 W 32 41 17 22 1013.6 1013.6 2.0
19/10:00pm 13.1 11.1 8.8 75 2.2 W 9 22 5 12 1013.3 1013.3 2.0
19/09:30pm 13.8 12.2 11.5 86 1.2 SSW 11 13 6 7 1012.8 1012.8 2.0
19/09:00pm 13.7 13.9 11.9 89 1.0 ESE 2 6 1 3 1012.5 1012.5 2.0
19/08:30pm 13.7 12.9 11.8 88 1.0 ESE 7 13 4 7 1012.0 1012.0 2.0
19/08:00pm 14.2 13.2 12.2 88 1.1 ESE 9 15 5 8 1011.2 1011.2 2.0
19/07:30pm 13.7 12.3 12.1 90 0.9 ESE 11 17 6 9 1010.6 1010.6 2.0
19/07:00pm 13.6 11.0 12.0 90 0.9 E 17 20 9 11 1010.2 1010.2 2.0
19/06:30pm 13.9 11.8 12.5 91 0.8 E 15 20 8 11 1009.8 1009.8 2.0
19/06:00pm 14.8 10.6 13.5 92 0.7 SSW 28 37 15 20 1008.9 1008.9 1.2
19/05:59pm 14.9 10.7 13.6 92 0.7 SSW 28 37 15 20 1008.9 1008.9 1.2
19/05:49pm 15.0 10.2 13.0 88 1.1 SSW 30 44 16 24 1008.6 1008.6 1.2
19/05:30pm 17.7 12.8 14.2 80 2.0 N 33 37 18 20 1007.7 1007.7 1.2

Latest Capital City Observations: Canberra | Sydney | Melbourne | Brisbane | Adelaide | Perth | Hobart | Darwin

Other Formats:

Comma delimited format used in spreadsheet applications
http://www.bom.gov.au/fwo/IDT60901/IDT60901.95988.axf

JavaScript Object Notation format (JSON) in row-major order
http://www.bom.gov.au/fwo/IDT60901/IDT60901.95988.json